sensor_id;sensor_type;location;lat;lon;timestamp;P1;durP1;ratioP1;P2;durP2;ratioP2
61911;SDS011;49973;52.084;5.412;2023-02-10T00:01:40;38.10;;;17.77;;
61911;SDS011;49973;52.084;5.412;2023-02-10T00:04:11;39.47;;;16.80;;
61911;SDS011;49973;52.084;5.412;2023-02-10T00:06:40;58.77;;;18.37;;
61911;SDS011;49973;52.084;5.412;2023-02-10T00:09:10;40.03;;;15.93;;
61911;SDS011;49973;52.084;5.412;2023-02-10T00:11:40;38.30;;;16.10;;
61911;SDS011;49973;52.084;5.412;2023-02-10T00:14:26;37.47;;;15.40;;
61911;SDS011;49973;52.084;5.412;2023-02-10T00:16:56;44.70;;;14.57;;
61911;SDS011;49973;52.084;5.412;2023-02-10T00:19:27;44.03;;;14.70;;
61911;SDS011;49973;52.084;5.412;2023-02-10T00:21:57;43.57;;;15.57;;
61911;SDS011;49973;52.084;5.412;2023-02-10T00:24:26;46.23;;;14.90;;
61911;SDS011;49973;52.084;5.412;2023-02-10T00:26:55;43.13;;;14.10;;
61911;SDS011;49973;52.084;5.412;2023-02-10T00:29:24;39.80;;;14.43;;
61911;SDS011;49973;52.084;5.412;2023-02-10T00:31:55;37.73;;;15.07;;
61911;SDS011;49973;52.084;5.412;2023-02-10T00:34:24;44.10;;;15.47;;
61911;SDS011;49973;52.084;5.412;2023-02-10T00:36:55;40.80;;;14.83;;
61911;SDS011;49973;52.084;5.412;2023-02-10T00:39:24;37.90;;;15.23;;
61911;SDS011;49973;52.084;5.412;2023-02-10T00:41:52;41.13;;;14.63;;
61911;SDS011;49973;52.084;5.412;2023-02-10T00:44:21;39.70;;;14.67;;
61911;SDS011;49973;52.084;5.412;2023-02-10T00:46:49;34.00;;;14.50;;
61911;SDS011;49973;52.084;5.412;2023-02-10T00:49:18;40.53;;;14.13;;
61911;SDS011;49973;52.084;5.412;2023-02-10T00:51:47;45.23;;;15.50;;
61911;SDS011;49973;52.084;5.412;2023-02-10T00:54:16;36.30;;;14.87;;
61911;SDS011;49973;52.084;5.412;2023-02-10T00:56:45;42.50;;;15.73;;
61911;SDS011;49973;52.084;5.412;2023-02-10T00:59:14;45.33;;;15.43;;
61911;SDS011;49973;52.084;5.412;2023-02-10T01:01:43;36.63;;;14.23;;
61911;SDS011;49973;52.084;5.412;2023-02-10T01:04:11;36.87;;;14.23;;
61911;SDS011;49973;52.084;5.412;2023-02-10T01:06:40;40.73;;;14.17;;
61911;SDS011;49973;52.084;5.412;2023-02-10T01:09:09;33.90;;;13.17;;
61911;SDS011;49973;52.084;5.412;2023-02-10T01:11:39;34.63;;;13.53;;
61911;SDS011;49973;52.084;5.412;2023-02-10T01:14:08;34.20;;;13.90;;
61911;SDS011;49973;52.084;5.412;2023-02-10T01:16:37;33.47;;;13.80;;
61911;SDS011;49973;52.084;5.412;2023-02-10T01:19:08;32.80;;;12.73;;
61911;SDS011;49973;52.084;5.412;2023-02-10T01:21:37;42.53;;;12.40;;
61911;SDS011;49973;52.084;5.412;2023-02-10T01:24:06;23.17;;;12.63;;
61911;SDS011;49973;52.084;5.412;2023-02-10T01:26:35;27.50;;;12.50;;
61911;SDS011;49973;52.084;5.412;2023-02-10T01:29:04;24.63;;;11.63;;
61911;SDS011;49973;52.084;5.412;2023-02-10T01:31:33;24.37;;;11.83;;
61911;SDS011;49973;52.084;5.412;2023-02-10T01:34:04;25.53;;;11.07;;
61911;SDS011;49973;52.084;5.412;2023-02-10T01:36:36;29.33;;;12.03;;
61911;SDS011;49973;52.084;5.412;2023-02-10T01:39:04;20.43;;;11.63;;
61911;SDS011;49973;52.084;5.412;2023-02-10T01:41:33;26.97;;;12.23;;
61911;SDS011;49973;52.084;5.412;2023-02-10T01:44:03;35.70;;;13.27;;
61911;SDS011;49973;52.084;5.412;2023-02-10T01:46:54;33.80;;;13.17;;
61911;SDS011;49973;52.084;5.412;2023-02-10T01:49:24;26.87;;;12.20;;
61911;SDS011;49973;52.084;5.412;2023-02-10T01:51:56;30.93;;;12.53;;
61911;SDS011;49973;52.084;5.412;2023-02-10T01:54:29;28.97;;;13.60;;
61911;SDS011;49973;52.084;5.412;2023-02-10T01:57:00;30.77;;;13.17;;
61911;SDS011;49973;52.084;5.412;2023-02-10T01:59:32;33.83;;;12.23;;
61911;SDS011;49973;52.084;5.412;2023-02-10T02:02:03;38.27;;;13.03;;
61911;SDS011;49973;52.084;5.412;2023-02-10T02:04:34;33.77;;;12.10;;
61911;SDS011;49973;52.084;5.412;2023-02-10T02:07:05;32.67;;;11.47;;
61911;SDS011;49973;52.084;5.412;2023-02-10T02:09:34;29.30;;;12.33;;
61911;SDS011;49973;52.084;5.412;2023-02-10T02:12:04;37.80;;;13.50;;
61911;SDS011;49973;52.084;5.412;2023-02-10T02:14:41;27.70;;;11.63;;
61911;SDS011;49973;52.084;5.412;2023-02-10T02:17:18;29.67;;;13.50;;
61911;SDS011;49973;52.084;5.412;2023-02-10T02:23:13;31.30;;;12.60;;
61911;SDS011;49973;52.084;5.412;2023-02-10T02:29:09;26.40;;;12.50;;
61911;SDS011;49973;52.084;5.412;2023-02-10T02:32:00;33.03;;;13.10;;
61911;SDS011;49973;52.084;5.412;2023-02-10T02:34:34;35.20;;;14.13;;
61911;SDS011;49973;52.084;5.412;2023-02-10T02:37:08;34.67;;;13.30;;
61911;SDS011;49973;52.084;5.412;2023-02-10T02:39:42;31.30;;;13.20;;
61911;SDS011;49973;52.084;5.412;2023-02-10T02:42:16;41.33;;;14.27;;
61911;SDS011;49973;52.084;5.412;2023-02-10T02:44:48;35.90;;;13.20;;
61911;SDS011;49973;52.084;5.412;2023-02-10T02:47:35;32.87;;;13.70;;
61911;SDS011;49973;52.084;5.412;2023-02-10T02:50:19;38.63;;;16.27;;
61911;SDS011;49973;52.084;5.412;2023-02-10T02:52:56;54.43;;;20.03;;
61911;SDS011;49973;52.084;5.412;2023-02-10T02:55:35;48.30;;;17.70;;
61911;SDS011;49973;52.084;5.412;2023-02-10T02:58:16;44.70;;;16.93;;
61911;SDS011;49973;52.084;5.412;2023-02-10T03:00:51;36.47;;;16.53;;
61911;SDS011;49973;52.084;5.412;2023-02-10T03:03:23;50.20;;;17.30;;
61911;SDS011;49973;52.084;5.412;2023-02-10T03:05:52;49.37;;;18.77;;
61911;SDS011;49973;52.084;5.412;2023-02-10T03:08:20;52.47;;;17.20;;
61911;SDS011;49973;52.084;5.412;2023-02-10T03:10:49;57.90;;;17.17;;
61911;SDS011;49973;52.084;5.412;2023-02-10T03:13:18;46.47;;;16.17;;
61911;SDS011;49973;52.084;5.412;2023-02-10T03:15:46;48.27;;;15.90;;
61911;SDS011;49973;52.084;5.412;2023-02-10T03:18:16;53.53;;;15.60;;
61911;SDS011;49973;52.084;5.412;2023-02-10T03:20:46;47.27;;;16.07;;
61911;SDS011;49973;52.084;5.412;2023-02-10T03:23:14;46.20;;;16.57;;
61911;SDS011;49973;52.084;5.412;2023-02-10T03:25:43;47.10;;;15.87;;
61911;SDS011;49973;52.084;5.412;2023-02-10T03:28:13;40.53;;;15.33;;
61911;SDS011;49973;52.084;5.412;2023-02-10T03:30:42;41.47;;;15.90;;
61911;SDS011;49973;52.084;5.412;2023-02-10T03:33:17;41.03;;;16.07;;
61911;SDS011;49973;52.084;5.412;2023-02-10T03:35:47;51.60;;;16.23;;
61911;SDS011;49973;52.084;5.412;2023-02-10T03:38:19;41.33;;;15.37;;
61911;SDS011;49973;52.084;5.412;2023-02-10T03:40:49;46.83;;;17.57;;
61911;SDS011;49973;52.084;5.412;2023-02-10T03:43:18;54.70;;;16.87;;
61911;SDS011;49973;52.084;5.412;2023-02-10T03:45:47;51.57;;;17.27;;
61911;SDS011;49973;52.084;5.412;2023-02-10T03:48:16;58.07;;;18.20;;
61911;SDS011;49973;52.084;5.412;2023-02-10T03:50:47;73.03;;;18.50;;
61911;SDS011;49973;52.084;5.412;2023-02-10T03:53:16;63.63;;;19.07;;
61911;SDS011;49973;52.084;5.412;2023-02-10T03:55:44;68.33;;;18.57;;
61911;SDS011;49973;52.084;5.412;2023-02-10T03:58:13;55.97;;;18.57;;
61911;SDS011;49973;52.084;5.412;2023-02-10T04:00:42;57.93;;;18.77;;
61911;SDS011;49973;52.084;5.412;2023-02-10T04:03:10;59.07;;;19.47;;
61911;SDS011;49973;52.084;5.412;2023-02-10T04:05:39;63.70;;;21.23;;
61911;SDS011;49973;52.084;5.412;2023-02-10T04:08:09;88.47;;;20.67;;
61911;SDS011;49973;52.084;5.412;2023-02-10T04:10:37;68.47;;;21.60;;
61911;SDS011;49973;52.084;5.412;2023-02-10T04:13:07;54.00;;;20.13;;
61911;SDS011;49973;52.084;5.412;2023-02-10T04:15:36;87.20;;;21.63;;
61911;SDS011;49973;52.084;5.412;2023-02-10T04:18:04;67.93;;;21.73;;
61911;SDS011;49973;52.084;5.412;2023-02-10T04:20:33;67.07;;;20.90;;
61911;SDS011;49973;52.084;5.412;2023-02-10T04:23:01;59.07;;;22.00;;
61911;SDS011;49973;52.084;5.412;2023-02-10T04:25:31;62.97;;;23.23;;
61911;SDS011;49973;52.084;5.412;2023-02-10T04:28:00;74.53;;;23.63;;
61911;SDS011;49973;52.084;5.412;2023-02-10T04:30:28;73.00;;;21.10;;
61911;SDS011;49973;52.084;5.412;2023-02-10T04:32:57;82.23;;;22.00;;
61911;SDS011;49973;52.084;5.412;2023-02-10T04:35:25;65.77;;;22.23;;
61911;SDS011;49973;52.084;5.412;2023-02-10T04:37:54;68.53;;;21.37;;
61911;SDS011;49973;52.084;5.412;2023-02-10T04:40:23;69.03;;;21.27;;
61911;SDS011;49973;52.084;5.412;2023-02-10T04:42:53;54.93;;;20.20;;
61911;SDS011;49973;52.084;5.412;2023-02-10T04:45:21;57.40;;;18.70;;
61911;SDS011;49973;52.084;5.412;2023-02-10T04:47:49;70.50;;;21.57;;
61911;SDS011;49973;52.084;5.412;2023-02-10T04:50:18;63.00;;;21.17;;
61911;SDS011;49973;52.084;5.412;2023-02-10T04:52:46;49.40;;;17.53;;
61911;SDS011;49973;52.084;5.412;2023-02-10T04:55:15;66.27;;;20.10;;
61911;SDS011;49973;52.084;5.412;2023-02-10T04:57:43;63.63;;;21.20;;
61911;SDS011;49973;52.084;5.412;2023-02-10T05:00:14;60.53;;;21.43;;
61911;SDS011;49973;52.084;5.412;2023-02-10T05:02:43;66.63;;;22.87;;
61911;SDS011;49973;52.084;5.412;2023-02-10T05:05:12;74.43;;;22.40;;
61911;SDS011;49973;52.084;5.412;2023-02-10T05:07:40;74.70;;;23.63;;
61911;SDS011;49973;52.084;5.412;2023-02-10T05:10:09;88.27;;;23.60;;
61911;SDS011;49973;52.084;5.412;2023-02-10T05:12:37;69.17;;;23.80;;
61911;SDS011;49973;52.084;5.412;2023-02-10T05:15:07;84.53;;;24.60;;
61911;SDS011;49973;52.084;5.412;2023-02-10T05:17:37;77.00;;;22.67;;
61911;SDS011;49973;52.084;5.412;2023-02-10T05:20:06;74.23;;;23.80;;
61911;SDS011;49973;52.084;5.412;2023-02-10T05:22:35;76.13;;;22.80;;
61911;SDS011;49973;52.084;5.412;2023-02-10T05:25:04;84.33;;;24.40;;
61911;SDS011;49973;52.084;5.412;2023-02-10T05:27:34;85.47;;;25.57;;
61911;SDS011;49973;52.084;5.412;2023-02-10T05:30:03;83.50;;;24.77;;
61911;SDS011;49973;52.084;5.412;2023-02-10T05:32:35;77.30;;;24.60;;
61911;SDS011;49973;52.084;5.412;2023-02-10T05:35:06;80.20;;;24.50;;
61911;SDS011;49973;52.084;5.412;2023-02-10T05:37:35;66.87;;;23.47;;
61911;SDS011;49973;52.084;5.412;2023-02-10T05:40:04;84.63;;;24.57;;
61911;SDS011;49973;52.084;5.412;2023-02-10T05:42:33;75.37;;;24.87;;
61911;SDS011;49973;52.084;5.412;2023-02-10T05:45:02;67.20;;;22.57;;
61911;SDS011;49973;52.084;5.412;2023-02-10T05:47:31;81.13;;;23.63;;
61911;SDS011;49973;52.084;5.412;2023-02-10T05:50:00;87.30;;;24.93;;
61911;SDS011;49973;52.084;5.412;2023-02-10T05:52:29;79.50;;;22.90;;
61911;SDS011;49973;52.084;5.412;2023-02-10T05:54:57;81.73;;;25.43;;
61911;SDS011;49973;52.084;5.412;2023-02-10T05:57:26;77.17;;;25.33;;
61911;SDS011;49973;52.084;5.412;2023-02-10T05:59:54;89.13;;;26.93;;
61911;SDS011;49973;52.084;5.412;2023-02-10T06:02:23;81.20;;;24.57;;
61911;SDS011;49973;52.084;5.412;2023-02-10T06:04:51;74.40;;;24.77;;
61911;SDS011;49973;52.084;5.412;2023-02-10T06:07:21;87.87;;;25.87;;
61911;SDS011;49973;52.084;5.412;2023-02-10T06:09:50;83.60;;;23.60;;
61911;SDS011;49973;52.084;5.412;2023-02-10T06:12:18;70.03;;;21.43;;
61911;SDS011;49973;52.084;5.412;2023-02-10T06:14:47;80.37;;;23.13;;
61911;SDS011;49973;52.084;5.412;2023-02-10T06:17:15;76.60;;;25.23;;
61911;SDS011;49973;52.084;5.412;2023-02-10T06:19:44;76.60;;;23.70;;
61911;SDS011;49973;52.084;5.412;2023-02-10T06:22:12;85.27;;;24.63;;
61911;SDS011;49973;52.084;5.412;2023-02-10T06:24:42;61.13;;;20.63;;
61911;SDS011;49973;52.084;5.412;2023-02-10T06:27:11;69.40;;;22.27;;
61911;SDS011;49973;52.084;5.412;2023-02-10T06:29:41;75.53;;;23.57;;
61911;SDS011;49973;52.084;5.412;2023-02-10T06:32:09;65.67;;;20.20;;
61911;SDS011;49973;52.084;5.412;2023-02-10T06:34:38;79.27;;;22.07;;
61911;SDS011;49973;52.084;5.412;2023-02-10T06:37:07;72.60;;;22.60;;
61911;SDS011;49973;52.084;5.412;2023-02-10T06:39:36;72.33;;;22.97;;
61911;SDS011;49973;52.084;5.412;2023-02-10T06:42:05;63.60;;;22.83;;
61911;SDS011;49973;52.084;5.412;2023-02-10T06:44:34;63.70;;;21.60;;
61911;SDS011;49973;52.084;5.412;2023-02-10T06:47:02;70.40;;;23.53;;
61911;SDS011;49973;52.084;5.412;2023-02-10T06:49:31;64.37;;;21.33;;
61911;SDS011;49973;52.084;5.412;2023-02-10T06:52:00;65.40;;;22.07;;
61911;SDS011;49973;52.084;5.412;2023-02-10T06:54:41;58.30;;;19.30;;
61911;SDS011;49973;52.084;5.412;2023-02-10T06:57:11;46.10;;;19.37;;
61911;SDS011;49973;52.084;5.412;2023-02-10T06:59:40;54.73;;;17.47;;
61911;SDS011;49973;52.084;5.412;2023-02-10T07:02:08;52.07;;;18.57;;
61911;SDS011;49973;52.084;5.412;2023-02-10T07:04:38;50.63;;;17.50;;
61911;SDS011;49973;52.084;5.412;2023-02-10T07:07:07;56.70;;;18.97;;
61911;SDS011;49973;52.084;5.412;2023-02-10T07:09:36;49.47;;;18.13;;
61911;SDS011;49973;52.084;5.412;2023-02-10T07:12:04;57.20;;;17.43;;
61911;SDS011;49973;52.084;5.412;2023-02-10T07:14:34;42.33;;;17.57;;
61911;SDS011;49973;52.084;5.412;2023-02-10T07:17:04;48.80;;;17.50;;
61911;SDS011;49973;52.084;5.412;2023-02-10T07:19:33;43.07;;;18.67;;
61911;SDS011;49973;52.084;5.412;2023-02-10T07:22:02;46.50;;;17.60;;
61911;SDS011;49973;52.084;5.412;2023-02-10T07:24:33;50.60;;;17.43;;
61911;SDS011;49973;52.084;5.412;2023-02-10T07:27:03;38.80;;;17.50;;
61911;SDS011;49973;52.084;5.412;2023-02-10T07:29:32;44.90;;;17.47;;
61911;SDS011;49973;52.084;5.412;2023-02-10T07:32:02;46.23;;;17.60;;
61911;SDS011;49973;52.084;5.412;2023-02-10T07:34:30;45.23;;;17.47;;
61911;SDS011;49973;52.084;5.412;2023-02-10T07:37:00;41.37;;;16.97;;
61911;SDS011;49973;52.084;5.412;2023-02-10T07:39:29;41.17;;;16.37;;
61911;SDS011;49973;52.084;5.412;2023-02-10T07:41:58;40.63;;;16.73;;
61911;SDS011;49973;52.084;5.412;2023-02-10T07:44:38;40.27;;;15.63;;
61911;SDS011;49973;52.084;5.412;2023-02-10T07:47:09;42.17;;;16.50;;
61911;SDS011;49973;52.084;5.412;2023-02-10T07:49:37;33.77;;;16.03;;
61911;SDS011;49973;52.084;5.412;2023-02-10T07:52:06;34.40;;;16.17;;
61911;SDS011;49973;52.084;5.412;2023-02-10T07:54:35;33.27;;;16.07;;
61911;SDS011;49973;52.084;5.412;2023-02-10T07:57:04;36.83;;;16.03;;
61911;SDS011;49973;52.084;5.412;2023-02-10T07:59:32;41.63;;;16.27;;
61911;SDS011;49973;52.084;5.412;2023-02-10T08:02:01;36.13;;;15.20;;
61911;SDS011;49973;52.084;5.412;2023-02-10T08:04:31;36.73;;;17.27;;
61911;SDS011;49973;52.084;5.412;2023-02-10T08:07:00;38.63;;;16.00;;
61911;SDS011;49973;52.084;5.412;2023-02-10T08:09:28;34.33;;;17.30;;
61911;SDS011;49973;52.084;5.412;2023-02-10T08:11:56;36.80;;;16.53;;
61911;SDS011;49973;52.084;5.412;2023-02-10T08:14:25;34.57;;;17.20;;
61911;SDS011;49973;52.084;5.412;2023-02-10T08:16:54;41.70;;;17.00;;
61911;SDS011;49973;52.084;5.412;2023-02-10T08:19:22;35.57;;;16.93;;
61911;SDS011;49973;52.084;5.412;2023-02-10T08:21:52;33.37;;;15.93;;
61911;SDS011;49973;52.084;5.412;2023-02-10T08:24:21;37.67;;;18.03;;
61911;SDS011;49973;52.084;5.412;2023-02-10T08:26:49;37.20;;;18.23;;
61911;SDS011;49973;52.084;5.412;2023-02-10T08:29:18;37.50;;;17.47;;
61911;SDS011;49973;52.084;5.412;2023-02-10T08:31:48;38.57;;;18.20;;
61911;SDS011;49973;52.084;5.412;2023-02-10T08:34:17;46.03;;;18.87;;
61911;SDS011;49973;52.084;5.412;2023-02-10T08:36:47;44.30;;;18.63;;
61911;SDS011;49973;52.084;5.412;2023-02-10T08:39:17;37.23;;;18.33;;
61911;SDS011;49973;52.084;5.412;2023-02-10T08:41:46;37.97;;;17.30;;
61911;SDS011;49973;52.084;5.412;2023-02-10T08:44:15;37.80;;;17.73;;
61911;SDS011;49973;52.084;5.412;2023-02-10T08:46:43;39.90;;;18.90;;
61911;SDS011;49973;52.084;5.412;2023-02-10T08:49:12;42.33;;;18.67;;
61911;SDS011;49973;52.084;5.412;2023-02-10T08:51:41;39.70;;;17.47;;
61911;SDS011;49973;52.084;5.412;2023-02-10T08:54:09;42.03;;;19.67;;
61911;SDS011;49973;52.084;5.412;2023-02-10T08:56:39;37.97;;;19.53;;
61911;SDS011;49973;52.084;5.412;2023-02-10T08:59:08;40.07;;;19.47;;
61911;SDS011;49973;52.084;5.412;2023-02-10T09:01:37;41.73;;;18.97;;
61911;SDS011;49973;52.084;5.412;2023-02-10T09:04:05;41.87;;;19.53;;
61911;SDS011;49973;52.084;5.412;2023-02-10T09:06:35;37.40;;;19.23;;
61911;SDS011;49973;52.084;5.412;2023-02-10T09:09:05;39.33;;;18.90;;
61911;SDS011;49973;52.084;5.412;2023-02-10T09:11:34;39.53;;;18.67;;
61911;SDS011;49973;52.084;5.412;2023-02-10T09:14:04;37.77;;;18.90;;
61911;SDS011;49973;52.084;5.412;2023-02-10T09:16:33;39.03;;;18.40;;
61911;SDS011;49973;52.084;5.412;2023-02-10T09:19:02;39.73;;;19.43;;
61911;SDS011;49973;52.084;5.412;2023-02-10T09:21:31;37.83;;;19.13;;
61911;SDS011;49973;52.084;5.412;2023-02-10T09:24:12;43.33;;;20.13;;
61911;SDS011;49973;52.084;5.412;2023-02-10T09:26:41;36.23;;;18.00;;
61911;SDS011;49973;52.084;5.412;2023-02-10T09:29:11;42.43;;;20.00;;
61911;SDS011;49973;52.084;5.412;2023-02-10T09:31:40;32.70;;;18.27;;
61911;SDS011;49973;52.084;5.412;2023-02-10T09:34:09;34.33;;;16.83;;
61911;SDS011;49973;52.084;5.412;2023-02-10T09:36:37;36.57;;;18.43;;
61911;SDS011;49973;52.084;5.412;2023-02-10T09:39:06;38.60;;;18.77;;
61911;SDS011;49973;52.084;5.412;2023-02-10T09:41:45;38.63;;;18.77;;
61911;SDS011;49973;52.084;5.412;2023-02-10T09:44:23;45.83;;;22.27;;
61911;SDS011;49973;52.084;5.412;2023-02-10T09:46:59;39.07;;;17.63;;
61911;SDS011;49973;52.084;5.412;2023-02-10T09:49:48;38.80;;;19.47;;
61911;SDS011;49973;52.084;5.412;2023-02-10T09:52:29;37.07;;;17.90;;
61911;SDS011;49973;52.084;5.412;2023-02-10T09:55:12;44.43;;;19.03;;
61911;SDS011;49973;52.084;5.412;2023-02-10T09:57:43;39.97;;;18.17;;
61911;SDS011;49973;52.084;5.412;2023-02-10T10:00:20;30.93;;;17.13;;
61911;SDS011;49973;52.084;5.412;2023-02-10T10:02:54;30.90;;;15.10;;
61911;SDS011;49973;52.084;5.412;2023-02-10T10:05:30;36.47;;;18.13;;
61911;SDS011;49973;52.084;5.412;2023-02-10T10:08:09;35.37;;;17.73;;
61911;SDS011;49973;52.084;5.412;2023-02-10T10:10:42;36.90;;;18.43;;
61911;SDS011;49973;52.084;5.412;2023-02-10T10:13:14;34.07;;;16.70;;
61911;SDS011;49973;52.084;5.412;2023-02-10T10:15:49;40.00;;;18.47;;
61911;SDS011;49973;52.084;5.412;2023-02-10T10:18:32;27.33;;;16.70;;
61911;SDS011;49973;52.084;5.412;2023-02-10T10:21:07;37.80;;;17.47;;
61911;SDS011;49973;52.084;5.412;2023-02-10T10:23:45;41.07;;;19.23;;
61911;SDS011;49973;52.084;5.412;2023-02-10T10:26:32;37.53;;;17.00;;
61911;SDS011;49973;52.084;5.412;2023-02-10T10:29:15;38.53;;;18.20;;
61911;SDS011;49973;52.084;5.412;2023-02-10T10:31:58;34.33;;;17.60;;
61911;SDS011;49973;52.084;5.412;2023-02-10T10:34:36;39.83;;;18.33;;
61911;SDS011;49973;52.084;5.412;2023-02-10T10:37:11;31.63;;;15.40;;
61911;SDS011;49973;52.084;5.412;2023-02-10T10:39:43;35.77;;;16.60;;
61911;SDS011;49973;52.084;5.412;2023-02-10T10:42:17;32.50;;;17.40;;
61911;SDS011;49973;52.084;5.412;2023-02-10T10:44:52;32.07;;;14.83;;
61911;SDS011;49973;52.084;5.412;2023-02-10T10:47:31;35.13;;;15.33;;
61911;SDS011;49973;52.084;5.412;2023-02-10T10:50:10;31.53;;;14.03;;
61911;SDS011;49973;52.084;5.412;2023-02-10T10:52:41;28.50;;;13.07;;
61911;SDS011;49973;52.084;5.412;2023-02-10T10:55:12;28.53;;;13.13;;
61911;SDS011;49973;52.084;5.412;2023-02-10T10:57:45;26.27;;;12.10;;
61911;SDS011;49973;52.084;5.412;2023-02-10T11:00:16;26.10;;;11.77;;
61911;SDS011;49973;52.084;5.412;2023-02-10T11:02:54;30.33;;;12.80;;
61911;SDS011;49973;52.084;5.412;2023-02-10T11:05:27;30.50;;;13.87;;
61911;SDS011;49973;52.084;5.412;2023-02-10T11:07:58;29.30;;;13.97;;
61911;SDS011;49973;52.084;5.412;2023-02-10T11:10:30;37.53;;;13.70;;
61911;SDS011;49973;52.084;5.412;2023-02-10T11:13:03;30.70;;;13.57;;
61911;SDS011;49973;52.084;5.412;2023-02-10T11:15:37;27.33;;;13.13;;
61911;SDS011;49973;52.084;5.412;2023-02-10T11:18:12;33.57;;;13.77;;
61911;SDS011;49973;52.084;5.412;2023-02-10T11:20:52;27.47;;;12.90;;
61911;SDS011;49973;52.084;5.412;2023-02-10T11:23:22;27.90;;;12.13;;
61911;SDS011;49973;52.084;5.412;2023-02-10T11:25:55;27.17;;;11.40;;
61911;SDS011;49973;52.084;5.412;2023-02-10T11:28:29;22.03;;;10.97;;
61911;SDS011;49973;52.084;5.412;2023-02-10T11:31:00;28.27;;;11.53;;
61911;SDS011;49973;52.084;5.412;2023-02-10T11:33:32;24.53;;;11.57;;
61911;SDS011;49973;52.084;5.412;2023-02-10T11:36:03;32.10;;;12.27;;
61911;SDS011;49973;52.084;5.412;2023-02-10T11:38:34;21.33;;;10.43;;
61911;SDS011;49973;52.084;5.412;2023-02-10T11:41:04;24.57;;;10.00;;
61911;SDS011;49973;52.084;5.412;2023-02-10T11:43:36;29.60;;;12.43;;
61911;SDS011;49973;52.084;5.412;2023-02-10T11:46:16;27.73;;;12.40;;
61911;SDS011;49973;52.084;5.412;2023-02-10T11:48:56;24.67;;;11.50;;
61911;SDS011;49973;52.084;5.412;2023-02-10T11:51:26;26.63;;;9.53;;
61911;SDS011;49973;52.084;5.412;2023-02-10T11:53:55;24.50;;;10.43;;
61911;SDS011;49973;52.084;5.412;2023-02-10T11:56:26;23.00;;;9.23;;
61911;SDS011;49973;52.084;5.412;2023-02-10T11:59:24;19.17;;;8.50;;
61911;SDS011;49973;52.084;5.412;2023-02-10T12:01:58;18.77;;;9.13;;
61911;SDS011;49973;52.084;5.412;2023-02-10T12:04:49;24.33;;;10.17;;
61911;SDS011;49973;52.084;5.412;2023-02-10T12:07:50;20.00;;;10.20;;
61911;SDS011;49973;52.084;5.412;2023-02-10T12:10:27;24.77;;;9.50;;
61911;SDS011;49973;52.084;5.412;2023-02-10T12:13:01;24.50;;;9.67;;
61911;SDS011;49973;52.084;5.412;2023-02-10T12:15:36;20.17;;;8.80;;
61911;SDS011;49973;52.084;5.412;2023-02-10T12:18:17;20.10;;;9.80;;
61911;SDS011;49973;52.084;5.412;2023-02-10T12:20:57;21.60;;;8.97;;
61911;SDS011;49973;52.084;5.412;2023-02-10T12:23:42;14.13;;;7.90;;
61911;SDS011;49973;52.084;5.412;2023-02-10T12:26:20;16.07;;;8.23;;
61911;SDS011;49973;52.084;5.412;2023-02-10T12:28:56;17.73;;;9.00;;
61911;SDS011;49973;52.084;5.412;2023-02-10T12:31:38;20.93;;;9.07;;
61911;SDS011;49973;52.084;5.412;2023-02-10T12:34:18;24.73;;;9.63;;
61911;SDS011;49973;52.084;5.412;2023-02-10T12:37:00;26.17;;;10.03;;
61911;SDS011;49973;52.084;5.412;2023-02-10T12:39:39;26.97;;;9.03;;
61911;SDS011;49973;52.084;5.412;2023-02-10T12:42:16;23.47;;;9.67;;
61911;SDS011;49973;52.084;5.412;2023-02-10T12:45:04;22.77;;;9.87;;
61911;SDS011;49973;52.084;5.412;2023-02-10T12:47:42;24.90;;;10.27;;
61911;SDS011;49973;52.084;5.412;2023-02-10T12:50:21;19.57;;;9.63;;
61911;SDS011;49973;52.084;5.412;2023-02-10T12:53:01;16.23;;;8.80;;
61911;SDS011;49973;52.084;5.412;2023-02-10T12:55:39;20.17;;;10.07;;
61911;SDS011;49973;52.084;5.412;2023-02-10T12:58:17;26.27;;;11.57;;
61911;SDS011;49973;52.084;5.412;2023-02-10T13:00:50;23.70;;;9.50;;
61911;SDS011;49973;52.084;5.412;2023-02-10T13:03:22;22.07;;;10.50;;
61911;SDS011;49973;52.084;5.412;2023-02-10T13:05:57;19.53;;;9.83;;
61911;SDS011;49973;52.084;5.412;2023-02-10T13:08:36;24.47;;;10.33;;
61911;SDS011;49973;52.084;5.412;2023-02-10T13:11:11;26.23;;;10.13;;
61911;SDS011;49973;52.084;5.412;2023-02-10T13:13:43;27.83;;;9.87;;
61911;SDS011;49973;52.084;5.412;2023-02-10T13:16:15;29.23;;;10.97;;
61911;SDS011;49973;52.084;5.412;2023-02-10T13:18:48;17.03;;;8.80;;
61911;SDS011;49973;52.084;5.412;2023-02-10T13:21:22;25.30;;;10.27;;
61911;SDS011;49973;52.084;5.412;2023-02-10T13:23:59;20.83;;;9.87;;
61911;SDS011;49973;52.084;5.412;2023-02-10T13:26:39;20.73;;;10.07;;
61911;SDS011;49973;52.084;5.412;2023-02-10T13:29:16;21.77;;;10.67;;
61911;SDS011;49973;52.084;5.412;2023-02-10T13:32:01;32.77;;;12.13;;
61911;SDS011;49973;52.084;5.412;2023-02-10T13:35:07;24.60;;;10.40;;
61911;SDS011;49973;52.084;5.412;2023-02-10T13:37:43;27.10;;;12.33;;
61911;SDS011;49973;52.084;5.412;2023-02-10T13:40:17;30.33;;;11.60;;
61911;SDS011;49973;52.084;5.412;2023-02-10T13:42:51;32.60;;;12.77;;
61911;SDS011;49973;52.084;5.412;2023-02-10T13:45:23;32.40;;;12.23;;
61911;SDS011;49973;52.084;5.412;2023-02-10T13:47:54;25.13;;;11.10;;
61911;SDS011;49973;52.084;5.412;2023-02-10T13:50:25;26.20;;;12.03;;
61911;SDS011;49973;52.084;5.412;2023-02-10T13:52:57;24.63;;;11.07;;
61911;SDS011;49973;52.084;5.412;2023-02-10T13:55:38;37.73;;;14.90;;
61911;SDS011;49973;52.084;5.412;2023-02-10T13:58:16;28.93;;;13.70;;
61911;SDS011;49973;52.084;5.412;2023-02-10T14:00:59;34.47;;;14.10;;
61911;SDS011;49973;52.084;5.412;2023-02-10T14:03:29;36.63;;;14.63;;
61911;SDS011;49973;52.084;5.412;2023-02-10T14:05:59;32.27;;;14.00;;
61911;SDS011;49973;52.084;5.412;2023-02-10T14:08:30;34.23;;;14.07;;
61911;SDS011;49973;52.084;5.412;2023-02-10T14:11:03;28.70;;;14.33;;
61911;SDS011;49973;52.084;5.412;2023-02-10T14:13:34;31.43;;;13.90;;
61911;SDS011;49973;52.084;5.412;2023-02-10T14:16:04;28.00;;;14.27;;
61911;SDS011;49973;52.084;5.412;2023-02-10T14:18:35;27.63;;;13.07;;
61911;SDS011;49973;52.084;5.412;2023-02-10T14:21:06;25.87;;;12.83;;
61911;SDS011;49973;52.084;5.412;2023-02-10T14:23:39;33.03;;;14.03;;
61911;SDS011;49973;52.084;5.412;2023-02-10T14:26:15;34.97;;;15.03;;
61911;SDS011;49973;52.084;5.412;2023-02-10T14:28:47;44.47;;;18.27;;
61911;SDS011;49973;52.084;5.412;2023-02-10T14:31:17;41.67;;;19.13;;
61911;SDS011;49973;52.084;5.412;2023-02-10T14:33:51;34.80;;;17.13;;
61911;SDS011;49973;52.084;5.412;2023-02-10T14:36:21;34.27;;;16.57;;
61911;SDS011;49973;52.084;5.412;2023-02-10T14:38:50;44.43;;;18.97;;
61911;SDS011;49973;52.084;5.412;2023-02-10T14:41:23;40.27;;;16.73;;
61911;SDS011;49973;52.084;5.412;2023-02-10T14:43:53;40.53;;;16.90;;
61911;SDS011;49973;52.084;5.412;2023-02-10T14:46:23;32.90;;;16.00;;
61911;SDS011;49973;52.084;5.412;2023-02-10T14:48:56;32.13;;;15.23;;
61911;SDS011;49973;52.084;5.412;2023-02-10T14:51:27;34.67;;;15.20;;
61911;SDS011;49973;52.084;5.412;2023-02-10T14:54:06;29.13;;;15.67;;
61911;SDS011;49973;52.084;5.412;2023-02-10T14:56:38;30.57;;;15.67;;
61911;SDS011;49973;52.084;5.412;2023-02-10T14:59:17;33.50;;;17.97;;